Terminal Aerodrome Forecast
Issued by NWS

Home | Current Version | Previous Version | Text Only | Print | Product List | Glossary On
Versions: 1 2 3 4 5 6 7 8 9 10 11 12 13 14 15
597
FTUS46 KHNX 231726
TAFBFL
TAF
KBFL 231726Z 2318/2418 VRB05KT P6SM VCSH SCT040 BKN050
     FM231900 32012KT P6SM -TSRA BKN035CB
     FM240300 VRB04KT P6SM SCT050 BKN100
     FM240600 34006KT P6SM BKN050=

USA.gov is the U.S. government's official web portal to all federal, state and local government web resources and services.